Portada
METAR-TAF:

METAR-TAF

Aeropuertos :

Aeropuerto Cherif Al Idrissi

Alhucemas, Marruecos

latitud: 35-11N, longitud: 003-51W, altitud: 27 m

Observación

El informe se hizo hace 25 minutos, a las 08:00 UTC
Viento 3 kt del suroeste, variando entre sur y oeste-suroeste
Temperatura 18°C
Humedad 73%
Presión 1021 hPa
Visibilidad 10 km o más
sin nubes por debajo de 1500 m y sin presencia de cumulonimbus.

METAR: GMTA 240800Z 22003KT 180V240 CAVOK 18/13 Q1021 NOSIG

Hora: 09:25 (08:25 UTC)

Pronóstico

El informe se hizo hace 3 horas y 25 minutos, a las 05:00 UTC
Pronóstico válido del 24 a las 06 UTC al 25 a las 12 UTC
Viento 2 kt con dirección variable
Visibilidad 10 km o más
sin nubes por debajo de 1500 m y sin presencia de cumulonimbus.
Evolucionando progresivamente
del 25 a las 00 UTC al 25 a las 03 UTC
Cielo nuboso a una altura de 1000 ft

TAF: GMTA 240500Z 2406/2512 VRB02KT CAVOK BECMG 2500/2503 BKN010

Observaciones y pronósticos meteorológicos de más de 4000 aeropuertos (mensajes METAR y TAF).

Los puntos amarillos y rojos representan las estaciones disponibles.

Ponga el ratón en el punto deseado para ver el nombre de la estación.

Haga clic para ver las observaciones y los pronósticos meteorológicos.

Para cambiar el mapa : haga clic en los botones verdes con una cruz de color negro para hacer un zoom, en el botón verde con un guión para alejar o en las flechas verdes para mapas adyacentes.


METAR-TAF: